createdAt,value
2022-12-23T00:01:07.465Z,7.80
2022-12-23T00:06:14.288Z,6.97
2022-12-23T00:11:20.348Z,7.05
2022-12-23T00:16:21.989Z,6.65
2022-12-23T00:21:23.917Z,6.18
2022-12-23T00:26:26.911Z,5.97
2022-12-23T00:31:28.762Z,6.15
2022-12-23T00:36:30.814Z,5.57
2022-12-23T00:41:51.504Z,6.13
2022-12-23T00:46:53.123Z,6.35
2022-12-23T00:51:54.767Z,5.53
2022-12-23T00:56:56.396Z,6.10
2022-12-23T01:02:16.790Z,5.65
2022-12-23T01:07:18.520Z,6.60
2022-12-23T01:12:20.237Z,5.30
2022-12-23T01:17:21.922Z,4.78
2022-12-23T01:22:23.652Z,4.60
2022-12-23T01:27:25.271Z,4.50
2022-12-23T01:32:26.945Z,4.53
2022-12-23T01:37:28.559Z,5.15
2022-12-23T01:42:46.458Z,5.05
2022-12-23T01:47:53.540Z,4.93
2022-12-23T01:53:06.839Z,4.68
2022-12-23T01:58:21.452Z,6.28
2022-12-23T02:03:41.410Z,4.60
2022-12-23T02:09:01.948Z,4.30
2022-12-23T02:14:49.616Z,4.13
2022-12-23T02:20:03.180Z,4.55
2022-12-23T02:25:36.978Z,3.85
2022-12-23T02:31:11.161Z,3.65
2022-12-23T02:36:23.142Z,5.57
2022-12-23T02:41:34.314Z,4.10
2022-12-23T02:46:49.964Z,3.30
2022-12-23T02:51:54.655Z,3.47
2022-12-23T02:56:57.329Z,3.37
2022-12-23T03:01:59.911Z,4.95
2022-12-23T03:07:07.372Z,3.72
2022-12-23T03:12:20.272Z,3.47
2022-12-23T03:17:43.200Z,4.63
2022-12-23T03:22:58.963Z,4.65
2022-12-23T03:28:20.434Z,4.00
2022-12-23T03:33:34.335Z,4.10
2022-12-23T03:38:38.028Z,2.85
2022-12-23T03:43:58.545Z,3.00
2022-12-23T03:49:02.751Z,2.92
2022-12-23T03:54:10.334Z,2.85
2022-12-23T03:59:19.681Z,2.33
2022-12-23T04:04:38.097Z,3.10
2022-12-23T04:09:39.748Z,3.13
2022-12-23T04:14:47.748Z,3.28
2022-12-23T04:19:49.453Z,2.55
2022-12-23T04:24:51.055Z,2.83
2022-12-23T04:29:52.850Z,2.60
2022-12-23T04:34:54.435Z,3.10
2022-12-23T04:39:56.023Z,2.50
2022-12-23T04:44:57.767Z,0.88
2022-12-23T04:49:59.408Z,1.95
2022-12-23T04:55:01.011Z,2.53
2022-12-23T05:00:04.044Z,0.75
2022-12-23T05:05:06.067Z,0.73
2022-12-23T05:10:08.503Z,0.65
2022-12-23T05:15:10.600Z,3.28
2022-12-23T05:20:12.212Z,0.60
2022-12-23T05:25:13.985Z,0.95
2022-12-23T05:30:15.724Z,2.00
2022-12-23T05:35:17.335Z,0.88
2022-12-23T05:40:23.789Z,0.82
2022-12-23T05:45:29.314Z,0.85
2022-12-23T05:50:31.041Z,1.08
2022-12-23T05:55:36.518Z,0.60
2022-12-23T06:00:38.138Z,1.50
2022-12-23T06:05:40.515Z,1.27
2022-12-23T06:10:42.146Z,0.77
2022-12-23T06:15:43.789Z,0.70
2022-12-23T06:20:47.278Z,1.95
2022-12-23T06:25:48.897Z,0.50
2022-12-23T06:30:57.405Z,0.70
2022-12-23T06:35:59.048Z,1.13
2022-12-23T06:41:00.894Z,1.13
2022-12-23T06:46:02.703Z,0.85
2022-12-23T06:51:04.581Z,3.17
2022-12-23T06:56:06.579Z,1.33
2022-12-23T07:01:10.006Z,1.60
2022-12-23T07:06:11.944Z,1.85
2022-12-23T07:11:13.556Z,1.02
2022-12-23T07:16:15.441Z,1.02
2022-12-23T07:21:26.488Z,0.80
2022-12-23T07:26:30.561Z,1.50
2022-12-23T07:31:32.282Z,0.85
2022-12-23T07:36:33.976Z,1.92
2022-12-23T07:41:35.659Z,0.60
2022-12-23T07:46:41.096Z,0.98
2022-12-23T07:51:42.783Z,0.65
2022-12-23T07:56:44.362Z,1.50
2022-12-23T08:01:46.170Z,0.77
2022-12-23T08:06:48.157Z,1.17
2022-12-23T08:11:49.843Z,1.10
2022-12-23T08:16:51.589Z,0.80
2022-12-23T08:21:53.257Z,0.95
2022-12-23T08:26:54.957Z,1.10
2022-12-23T08:31:56.677Z,1.02
2022-12-23T08:36:58.273Z,1.30
2022-12-23T08:42:00.010Z,1.35
2022-12-23T08:47:01.724Z,0.80
2022-12-23T08:52:03.828Z,1.00
2022-12-23T08:57:05.580Z,0.98
2022-12-23T09:02:10.013Z,0.70
2022-12-23T09:07:11.756Z,1.30
2022-12-23T09:12:13.473Z,1.10
2022-12-23T09:17:15.145Z,1.25
2022-12-23T09:22:16.782Z,0.75
2022-12-23T09:27:18.525Z,1.10
2022-12-23T09:32:20.347Z,1.10
2022-12-23T09:37:22.038Z,1.25
2022-12-23T09:42:45.595Z,1.67
2022-12-23T09:48:14.025Z,1.08
2022-12-23T09:53:19.797Z,1.58
2022-12-23T09:58:32.120Z,2.15
2022-12-23T10:04:00.170Z,1.38
2022-12-23T10:09:05.166Z,1.42
2022-12-23T10:14:23.943Z,5.07
2022-12-23T10:19:33.987Z,1.50
2022-12-23T10:24:41.445Z,1.00
2022-12-23T10:29:43.085Z,1.10
2022-12-23T10:34:56.938Z,1.00
2022-12-23T10:40:07.524Z,0.90
2022-12-23T10:45:24.641Z,1.13
2022-12-23T10:50:40.083Z,0.82
2022-12-23T10:55:41.708Z,1.45
2022-12-23T11:00:46.626Z,1.02
2022-12-23T11:05:51.436Z,1.10
2022-12-23T11:10:54.012Z,0.95
2022-12-23T11:16:18.952Z,1.50
2022-12-23T11:21:20.990Z,1.20
2022-12-23T11:26:22.646Z,2.78
2022-12-23T11:31:26.915Z,1.35
2022-12-23T11:36:30.253Z,2.80
2022-12-23T11:41:43.693Z,1.27
2022-12-23T11:46:45.287Z,3.97
2022-12-23T11:52:13.470Z,2.60
2022-12-23T11:57:17.232Z,1.33
2022-12-23T12:02:30.818Z,1.50
2022-12-23T12:07:33.089Z,1.40
2022-12-23T12:12:34.738Z,1.42
2022-12-23T12:17:45.260Z,1.50
2022-12-23T12:22:52.887Z,1.50
2022-12-23T12:28:00.062Z,1.40
2022-12-23T12:33:19.189Z,1.60
2022-12-23T12:38:34.498Z,1.90
2022-12-23T12:43:45.586Z,1.30
2022-12-23T12:48:51.311Z,1.45
2022-12-23T12:53:59.570Z,1.48
2022-12-23T12:59:06.269Z,1.55
2022-12-23T13:04:23.472Z,1.90
2022-12-23T13:09:39.204Z,1.20
2022-12-23T13:15:03.465Z,1.20
2022-12-23T13:20:20.600Z,1.75
2022-12-23T13:25:41.386Z,1.98
2022-12-23T13:30:49.884Z,1.50
2022-12-23T13:36:06.407Z,1.67
2022-12-23T13:41:33.197Z,2.15
2022-12-23T13:47:00.778Z,1.58
2022-12-23T13:52:15.072Z,1.52
2022-12-23T13:57:23.921Z,1.90
2022-12-23T14:02:37.477Z,2.92
2022-12-23T14:07:39.161Z,1.63
2022-12-23T14:12:42.465Z,1.80
2022-12-23T14:18:12.447Z,1.42
2022-12-23T14:23:43.419Z,1.50
2022-12-23T14:28:56.712Z,1.35
2022-12-23T14:34:25.806Z,1.63
2022-12-23T14:39:32.614Z,2.15
2022-12-23T14:44:37.299Z,3.67
2022-12-23T14:49:43.009Z,4.63
2022-12-23T14:55:00.370Z,3.30
2022-12-23T15:00:07.036Z,4.28
2022-12-23T15:05:08.912Z,3.13
2022-12-23T15:10:19.035Z,2.53
2022-12-23T15:15:26.055Z,2.40
2022-12-23T15:20:27.767Z,3.00
2022-12-23T15:25:34.636Z,2.88
2022-12-23T15:30:37.683Z,3.05
2022-12-23T15:35:39.952Z,2.53
2022-12-23T15:40:41.737Z,2.58
2022-12-23T15:45:43.703Z,2.60
2022-12-23T15:50:45.363Z,2.55
2022-12-23T15:55:47.832Z,2.50
2022-12-23T16:00:53.117Z,2.22
2022-12-23T16:05:55.216Z,2.80
2022-12-23T16:11:15.029Z,3.28
2022-12-23T16:16:31.633Z,2.50
2022-12-23T16:21:35.667Z,2.67
2022-12-23T16:26:41.825Z,3.53
2022-12-23T16:31:52.105Z,2.90
2022-12-23T16:36:55.997Z,4.32
2022-12-23T16:41:57.572Z,3.42
2022-12-23T16:47:06.028Z,3.80
2022-12-23T16:52:09.263Z,3.55
2022-12-23T16:57:10.889Z,3.90
2022-12-23T17:02:19.171Z,3.00
2022-12-23T17:07:21.123Z,3.58
2022-12-23T17:12:22.726Z,3.60
2022-12-23T17:17:25.975Z,4.35
2022-12-23T17:22:28.347Z,3.42
2022-12-23T17:27:29.976Z,3.65
2022-12-23T17:32:31.854Z,4.53
2022-12-23T17:37:33.572Z,4.43
2022-12-23T17:42:35.335Z,5.78
2022-12-23T17:47:36.911Z,4.60
2022-12-23T17:52:39.107Z,6.50
2022-12-23T17:57:40.718Z,5.00
2022-12-23T18:02:44.557Z,4.93
2022-12-23T18:07:46.149Z,4.60
2022-12-23T18:12:50.657Z,5.18
2022-12-23T18:17:53.085Z,4.75
2022-12-23T18:22:55.008Z,4.75
2022-12-23T18:27:56.647Z,4.60
2022-12-23T18:32:58.235Z,5.25
2022-12-23T18:38:00.414Z,5.28
2022-12-23T18:43:02.302Z,5.45
2022-12-23T18:48:05.847Z,5.35
2022-12-23T18:53:10.979Z,6.30
2022-12-23T18:58:13.500Z,5.88
2022-12-23T19:03:28.489Z,6.07
2022-12-23T19:08:30.243Z,7.10
2022-12-23T19:13:33.200Z,7.22
2022-12-23T19:18:34.965Z,5.80
2022-12-23T19:23:39.025Z,7.80
2022-12-23T19:28:41.541Z,6.93
2022-12-23T19:33:45.212Z,6.20
2022-12-23T19:38:47.445Z,6.65
2022-12-23T19:43:49.223Z,6.07
2022-12-23T19:48:54.452Z,5.22
2022-12-23T19:53:56.039Z,5.68
2022-12-23T19:58:58.111Z,6.15
2022-12-23T20:03:59.785Z,6.55
2022-12-23T20:09:04.335Z,6.30
2022-12-23T20:14:07.158Z,5.53
2022-12-23T20:19:08.915Z,4.72
2022-12-23T20:24:10.652Z,5.18
2022-12-23T20:29:12.308Z,5.22
2022-12-23T20:34:15.901Z,6.00
2022-12-23T20:39:17.713Z,6.20
2022-12-23T20:44:36.490Z,6.05
2022-12-23T20:49:38.993Z,5.82
2022-12-23T20:54:40.671Z,6.05
2022-12-23T20:59:42.233Z,6.57
2022-12-23T21:04:43.813Z,6.95
2022-12-23T21:09:45.435Z,6.07
2022-12-23T21:14:47.021Z,7.38
2022-12-23T21:19:48.646Z,4.65
2022-12-23T21:24:51.423Z,5.60
2022-12-23T21:29:53.029Z,5.35
2022-12-23T21:34:55.027Z,5.13
2022-12-23T21:39:56.689Z,4.28
2022-12-23T21:44:58.306Z,4.63
2022-12-23T21:49:59.962Z,4.93
2022-12-23T21:55:01.579Z,4.50
2022-12-23T22:00:03.362Z,4.57
2022-12-23T22:05:06.701Z,4.50
2022-12-23T22:10:08.964Z,4.32
2022-12-23T22:15:11.866Z,4.30
2022-12-23T22:20:13.690Z,4.88
2022-12-23T22:25:15.580Z,4.07
2022-12-23T22:30:17.286Z,5.95
2022-12-23T22:35:18.898Z,5.57
2022-12-23T22:40:20.577Z,3.80
2022-12-23T22:45:22.178Z,4.97
2022-12-23T22:50:23.835Z,3.85
2022-12-23T22:55:25.552Z,3.20
2022-12-23T23:00:27.213Z,2.15
2022-12-23T23:05:28.852Z,1.67
2022-12-23T23:10:30.511Z,2.30
2022-12-23T23:15:32.110Z,1.40
2022-12-23T23:20:33.707Z,0.82
2022-12-23T23:25:35.363Z,1.23
2022-12-23T23:30:36.974Z,1.08
2022-12-23T23:35:38.622Z,1.92
2022-12-23T23:40:40.291Z,1.27
2022-12-23T23:45:41.887Z,1.20
2022-12-23T23:50:43.850Z,1.10
2022-12-23T23:55:45.489Z,1.52
